Terminal Aerodrome Forecast
Issued by NWS Austin/San Antonio, TX

Current Version | Previous Version | Text Only | Print | Product List | Glossary Off
Versions: 1 2 3 4 5 6 7 8 9 10 11 12 13 14 15 16 17 18 19 20 21 22 23 24 25 26

000
FTUS44 KEWX 272340
TAFSAT
TAF
KSAT 272340Z 2800/2906 15012KT P6SM FEW035
     FM281000 17005KT P6SM SCT020
     FM281300 17010KT P6SM FEW040=

USA.gov is the U.S. government's official web portal to all federal, state and local government web resources and services.